Time;durP1;ratioP1;P1;durP2;ratioP2;P2;SDS_P1;SDS_P2;PMS_P1;PMS_P2;Temp;Humidity;BMP_temperature;BMP_pressure;BME280_temperature;BME280_humidity;BME280_pressure;Samples;Min_cycle;Max_cycle;Signal;HPM_P1;HPM_P2
2021/09/09 00:01:24;;;;;;;1.23;0.90;;;17.40;72.00;;;;;;5002485;28;96440;-74
2021/09/09 00:03:59;;;;;;;0.90;0.73;;;17.40;71.80;;;;;;5028348;28;96161;-74
2021/09/09 00:10:57;;;;;;;1.48;1.05;;;17.50;71.30;;;;;;5020222;27;96682;-70
2021/09/09 00:13:29;;;;;;;1.10;0.80;;;17.60;70.90;;;;;;5027511;27;95733;-76
2021/09/09 00:16:01;;;;;;;1.65;0.80;;;17.60;70.70;;;;;;5024355;27;95241;-70
2021/09/09 00:18:34;;;;;;;2.75;1.00;;;17.60;70.40;;;;;;5010164;27;95870;-74
2021/09/09 00:21:06;;;;;;;1.10;1.00;;;17.70;70.30;;;;;;5007235;28;95722;-75
2021/09/09 00:23:36;;;;;;;2.08;1.15;;;17.70;70.40;;;;;;5030485;28;95875;-74
2021/09/09 00:26:07;;;;;;;2.97;0.80;;;17.70;70.70;;;;;;5033518;27;95785;-73
2021/09/09 00:28:39;;;;;;;1.88;0.90;;;17.70;70.70;;;;;;5008815;28;96571;-74
2021/09/09 00:31:12;;;;;;;1.42;1.00;;;17.80;64.50;;;;;;5031928;27;95747;-73
2021/09/09 00:33:46;;;;;;;2.58;1.42;;;17.80;70.30;;;;;;5035272;28;95998;-75
2021/09/09 00:36:17;;;;;;;3.13;1.25;;;17.80;70.10;;;;;;5029597;28;95738;-74
2021/09/09 00:38:48;;;;;;;1.83;1.08;;;17.90;70.00;;;;;;4990385;28;96625;-75
2021/09/09 00:41:18;;;;;;;5.17;1.10;;;17.90;70.20;;;;;;5030836;28;95400;-75
2021/09/09 00:43:48;;;;;;;3.13;0.90;;;17.90;70.40;;;;;;5029157;27;95861;-75
2021/09/09 00:46:24;;;;;;;2.38;1.20;;;18.00;70.60;;;;;;5024738;27;95364;-75
2021/09/09 00:48:56;;;;;;;2.00;0.93;;;18.00;70.70;;;;;;5031647;28;95909;-75
2021/09/09 00:51:28;;;;;;;1.48;0.70;;;18.10;70.60;;;;;;5029833;27;95319;-74
2021/09/09 00:54:00;;;;;;;1.27;1.00;;;18.20;70.20;;;;;;5012215;28;95866;-73
2021/09/09 00:56:31;;;;;;;3.25;1.00;;;18.20;70.10;;;;;;5029205;27;95811;-74
2021/09/09 00:59:02;;;;;;;1.33;0.85;;;18.30;70.10;;;;;;5027920;28;97545;-74
2021/09/09 01:01:34;;;;;;;2.53;1.20;;;18.30;70.10;;;;;;5018814;27;97222;-75
2021/09/09 01:04:06;;;;;;;0.70;0.70;;;18.30;70.00;;;;;;5039126;28;96444;-76
2021/09/09 01:06:38;;;;;;;0.90;0.70;;;18.30;69.90;;;;;;5012475;28;96028;-74
2021/09/09 01:09:08;;;;;;;;;;;18.30;69.70;;;;;;5028604;28;95970;-74
2021/09/09 01:11:39;;;;;;;1.05;0.80;;;18.40;69.80;;;;;;5030962;28;97250;-75
2021/09/09 01:14:16;;;;;;;1.45;1.08;;;18.50;69.80;;;;;;5008077;28;96520;-75
2021/09/09 01:16:48;;;;;;;2.08;0.70;;;18.70;69.80;;;;;;5019252;27;96379;-74
2021/09/09 01:19:20;;;;;;;1.00;0.82;;;18.80;69.80;;;;;;4998766;28;96876;-76
2021/09/09 01:21:50;;;;;;;;;;;18.90;69.80;;;;;;5033175;27;95926;-75
2021/09/09 01:24:22;;;;;;;2.35;0.95;;;19.00;69.80;;;;;;5039252;28;95291;-77
2021/09/09 01:27:04;;;;;;;2.05;0.80;;;19.10;69.70;;;;;;5035144;27;96328;-76
2021/09/09 01:29:37;;;;;;;1.13;0.82;;;19.20;69.60;;;;;;5010814;28;98281;-76
2021/09/09 01:32:09;;;;;;;1.65;0.80;;;19.30;69.50;;;;;;5028150;27;95894;-78
2021/09/09 01:34:39;;;;;;;2.70;0.70;;;19.40;69.40;;;;;;5032135;28;96069;-76
2021/09/09 01:37:13;;;;;;;1.95;0.88;;;19.50;69.30;;;;;;5034461;27;95303;-77
2021/09/09 01:39:47;;;;;;;0.82;0.75;;;19.50;69.20;;;;;;5013290;28;96376;-78
2021/09/09 01:42:17;;;;;;;2.10;0.88;;;19.60;69.10;;;;;;5033482;28;95359;-78
2021/09/09 01:44:51;;;;;;;0.57;0.57;;;19.70;69.00;;;;;;5032273;28;96535;-73
2021/09/09 01:47:22;;;;;;;0.73;0.73;;;19.80;68.90;;;;;;5028946;27;95974;-76
2021/09/09 01:49:56;;;;;;;0.85;0.80;;;19.90;68.90;;;;;;5035149;28;96374;-77
2021/09/09 01:52:27;;;;;;;;;;;19.90;68.70;;;;;;5034178;28;96004;-76
2021/09/09 01:54:59;;;;;;;0.90;0.80;;;20.00;68.80;;;;;;5034376;28;95360;-77
2021/09/09 01:57:30;;;;;;;0.50;0.50;;;20.10;68.90;;;;;;5034416;28;95538;-77
2021/09/09 02:00:04;;;;;;;0.68;0.50;;;20.10;68.60;;;;;;5033909;28;96428;-77
2021/09/09 02:02:41;;;;;;;1.08;0.80;;;20.20;68.70;;;;;;5023887;28;97567;-75
2021/09/09 02:05:14;;;;;;;2.08;0.80;;;20.20;66.10;;;;;;5011486;28;95816;-76
2021/09/09 02:07:45;;;;;;;1.60;1.15;;;20.20;67.50;;;;;;5029502;28;96975;-76
2021/09/09 02:10:19;;;;;;;0.77;0.70;;;20.30;67.60;;;;;;5034351;28;95926;-77
2021/09/09 02:12:51;;;;;;;0.77;0.77;;;20.40;67.50;;;;;;5033337;28;96160;-77
2021/09/09 02:15:22;;;;;;;0.82;0.82;;;20.50;67.50;;;;;;5034228;27;95513;-75
2021/09/09 02:17:54;;;;;;;1.17;1.10;;;20.70;67.40;;;;;;5002163;27;95578;-77
2021/09/09 02:20:25;;;;;;;1.23;0.93;;;20.80;67.10;;;;;;5007370;28;95815;-76
2021/09/09 02:22:55;;;;;;;0.65;0.65;;;20.90;66.90;;;;;;5039809;27;96478;-75
2021/09/09 02:25:27;;;;;;;1.00;0.90;;;21.10;66.90;;;;;;5035147;28;96473;-77
2021/09/09 02:27:57;;;;;;;1.15;0.73;;;21.10;66.60;;;;;;5030634;28;95674;-77
2021/09/09 02:30:27;;;;;;;0.80;0.80;;;21.30;66.50;;;;;;4991055;28;98527;-77
2021/09/09 02:33:00;;;;;;;1.65;0.70;;;21.40;66.20;;;;;;5012300;28;96168;-76
2021/09/09 02:35:30;;;;;;;0.70;0.70;;;21.50;66.10;;;;;;5030158;28;96740;-78
2021/09/09 02:38:01;;;;;;;2.00;0.97;;;21.70;65.80;;;;;;5007806;28;95741;-74
2021/09/09 02:40:31;;;;;;;;;;;21.70;62.70;;;;;;5028414;28;95254;-77
2021/09/09 02:43:01;;;;;;;1.10;0.90;;;21.50;62.80;;;;;;5009469;28;95754;-77
2021/09/09 02:45:31;;;;;;;1.05;0.82;;;21.40;63.00;;;;;;5030197;27;96073;-77
2021/09/09 02:48:02;;;;;;;1.50;0.82;;;21.40;63.40;;;;;;5034898;28;95147;-77
2021/09/09 02:50:33;;;;;;;0.88;0.68;;;21.50;63.80;;;;;;5031528;28;96369;-77
2021/09/09 02:53:04;;;;;;;;;;;21.50;64.00;;;;;;5033134;28;95535;-77
2021/09/09 02:55:36;;;;;;;1.05;0.90;;;21.60;63.90;;;;;;5033203;28;95519;-76
2021/09/09 02:58:07;;;;;;;0.88;0.88;;;21.60;64.10;;;;;;5030294;28;96701;-77
2021/09/09 03:00:40;;;;;;;0.75;0.75;;;21.70;64.20;;;;;;5030267;27;98336;-77
2021/09/09 03:03:13;;;;;;;1.17;0.80;;;21.70;64.20;;;;;;5028954;28;96580;-76
2021/09/09 03:05:43;;;;;;;1.05;0.95;;;21.80;64.40;;;;;;5041691;28;96701;-77
2021/09/09 03:08:14;;;;;;;;;;;21.80;64.30;;;;;;5007007;28;95230;-77
2021/09/09 03:10:44;;;;;;;0.90;0.90;;;21.90;64.40;;;;;;5025425;28;95859;-77
2021/09/09 03:13:16;;;;;;;0.65;0.65;;;21.90;64.40;;;;;;5028195;28;95735;-77
2021/09/09 03:15:47;;;;;;;0.70;0.70;;;21.90;64.50;;;;;;5020330;27;95814;-76
2021/09/09 03:18:19;;;;;;;1.13;1.00;;;22.00;64.50;;;;;;4995411;27;95447;-77
2021/09/09 03:20:52;;;;;;;0.68;0.68;;;22.10;64.60;;;;;;5017439;27;98151;-76
2021/09/09 03:23:22;;;;;;;2.05;0.85;;;22.10;64.60;;;;;;5004605;28;96891;-76
2021/09/09 03:25:52;;;;;;;1.15;1.05;;;22.10;61.90;;;;;;5025033;27;95837;-77
2021/09/09 03:28:25;;;;;;;1.13;1.00;;;21.90;61.50;;;;;;5027340;28;95732;-75
2021/09/09 03:30:56;;;;;;;0.90;0.90;;;21.70;61.90;;;;;;4991896;28;96013;-76
2021/09/09 03:33:28;;;;;;;0.52;0.52;;;21.60;62.40;;;;;;5024958;28;95920;-77
2021/09/09 03:35:58;;;;;;;;;;;21.40;62.60;;;;;;5027266;27;95998;-76
2021/09/09 03:38:29;;;;;;;0.67;0.67;;;21.40;62.80;;;;;;5026451;28;95851;-74
2021/09/09 03:41:00;;;;;;;3.92;1.27;;;21.30;63.00;;;;;;5005107;28;96945;-75
2021/09/09 03:43:30;;;;;;;5.80;1.10;;;21.30;63.00;;;;;;5028527;28;95796;-75
2021/09/09 03:46:00;;;;;;;0.82;0.70;;;21.20;63.10;;;;;;5031051;27;95539;-75
2021/09/09 03:48:32;;;;;;;2.75;1.25;;;21.20;63.20;;;;;;5014862;28;95727;-75
2021/09/09 03:51:02;;;;;;;1.23;0.87;;;21.10;63.20;;;;;;5036910;28;95764;-75
2021/09/09 03:53:34;;;;;;;1.58;1.08;;;21.10;63.30;;;;;;5019163;28;96103;-74
2021/09/09 03:56:05;;;;;;;2.60;1.05;;;21.00;63.40;;;;;;5038986;28;95283;-74
2021/09/09 03:58:36;;;;;;;0.77;0.77;;;21.00;64.10;;;;;;5011771;28;96078;-76
2021/09/09 04:01:06;;;;;;;2.40;1.60;;;21.00;63.80;;;;;;5027249;27;96521;-77
2021/09/09 04:03:38;;;;;;;1.75;1.25;;;21.00;63.60;;;;;;5028844;28;95449;-75
2021/09/09 04:06:10;;;;;;;3.50;1.88;;;21.00;63.50;;;;;;5032321;28;95766;-75
2021/09/09 04:08:41;;;;;;;2.65;1.00;;;21.00;63.50;;;;;;5010597;28;95835;-75
2021/09/09 04:11:12;;;;;;;1.85;1.30;;;21.00;63.60;;;;;;5028215;28;95759;-76
2021/09/09 04:13:44;;;;;;;1.08;0.98;;;20.90;63.90;;;;;;5027386;28;95825;-76
2021/09/09 04:16:18;;;;;;;1.92;0.90;;;20.90;63.20;;;;;;5002964;27;95855;-76
2021/09/09 04:18:51;;;;;;;1.25;1.10;;;20.80;64.20;;;;;;4994863;27;95944;-77
2021/09/09 04:21:22;;;;;;;3.90;1.42;;;20.80;64.30;;;;;;5020141;27;98088;-76
2021/09/09 04:23:55;;;;;;;1.10;1.00;;;20.80;64.40;;;;;;5029474;28;95971;-77
2021/09/09 04:26:28;;;;;;;3.13;1.10;;;20.80;64.60;;;;;;5030602;28;95276;-75
2021/09/09 04:29:01;;;;;;;1.73;1.20;;;20.70;64.70;;;;;;5027695;28;95845;-76
2021/09/09 04:31:34;;;;;;;1.35;1.23;;;20.70;64.70;;;;;;5006750;28;97425;-77
2021/09/09 04:34:04;;;;;;;1.42;1.33;;;20.80;64.90;;;;;;5005921;27;96533;-76
2021/09/09 04:36:36;;;;;;;1.17;1.08;;;20.70;64.90;;;;;;5028140;28;95623;-77
2021/09/09 04:39:08;;;;;;;1.38;1.05;;;20.70;64.80;;;;;;5027954;28;95659;-75
2021/09/09 04:41:39;;;;;;;2.05;1.05;;;20.80;65.00;;;;;;5002352;28;97053;-78
2021/09/09 04:44:12;;;;;;;1.75;1.48;;;20.80;64.80;;;;;;4992469;28;97404;-76
2021/09/09 04:46:42;;;;;;;6.13;1.42;;;20.90;64.70;;;;;;5007763;28;96334;-79
2021/09/09 04:49:14;;;;;;;2.27;1.30;;;20.90;64.60;;;;;;5034150;28;95790;-77
2021/09/09 04:51:46;;;;;;;0.95;0.95;;;20.90;64.40;;;;;;5029828;28;96709;-79
2021/09/09 04:54:19;;;;;;;3.78;1.08;;;20.90;64.30;;;;;;5032569;28;95747;-79
2021/09/09 04:56:51;;;;;;;1.10;1.00;;;20.90;64.40;;;;;;5033634;28;95549;-81
2021/09/09 04:59:22;;;;;;;2.35;1.25;;;20.90;64.40;;;;;;5032003;28;96070;-79
2021/09/09 05:01:53;;;;;;;2.88;1.33;;;20.80;64.30;;;;;;5030226;28;96642;-78
2021/09/09 05:04:25;;;;;;;1.00;0.90;;;20.80;64.30;;;;;;5038739;28;95639;-78
2021/09/09 05:06:56;;;;;;;;;;;20.80;64.60;;;;;;5020270;28;95899;-78
2021/09/09 05:09:27;;;;;;;2.72;1.23;;;20.80;64.80;;;;;;5038342;28;95651;-79
2021/09/09 05:11:58;;;;;;;1.15;1.00;;;20.90;64.70;;;;;;5038822;27;95306;-78
2021/09/09 05:14:29;;;;;;;;;;;20.80;64.50;;;;;;5036069;28;95726;-78
2021/09/09 05:17:00;;;;;;;3.07;1.20;;;20.80;64.60;;;;;;5030484;27;96989;-75
2021/09/09 05:19:31;;;;;;;;;;;20.80;64.80;;;;;;5026116;27;96265;-77
2021/09/09 05:22:01;;;;;;;2.10;1.17;;;20.80;64.90;;;;;;5011943;28;96568;-77
2021/09/09 05:24:30;;;;;;;2.00;1.65;;;20.80;64.90;;;;;;5036239;28;95276;-77
2021/09/09 05:27:00;;;;;;;2.47;1.20;;;20.80;64.80;;;;;;5011161;28;98276;-77
2021/09/09 05:29:30;;;;;;;2.75;1.52;;;20.80;64.70;;;;;;5010606;28;96220;-77
2021/09/09 05:32:01;;;;;;;1.52;1.20;;;20.80;64.70;;;;;;5009111;28;96403;-78
2021/09/09 05:34:32;;;;;;;11.82;10.98;;;20.70;64.70;;;;;;5034287;28;95947;-78
2021/09/09 05:37:03;;;;;;;2.88;1.50;;;20.80;64.80;;;;;;5037385;28;95695;-77
2021/09/09 05:39:34;;;;;;;15.32;14.23;;;20.80;64.80;;;;;;5034666;27;95698;-77
2021/09/09 05:42:04;;;;;;;3.80;3.07;;;20.80;65.10;;;;;;5033326;28;95810;-76
2021/09/09 05:44:33;;;;;;;1.48;1.00;;;20.80;64.90;;;;;;5034904;28;96516;-78
2021/09/09 05:47:05;;;;;;;3.10;1.00;;;20.80;64.90;;;;;;4997265;28;96555;-77
2021/09/09 05:49:38;;;;;;;1.55;1.00;;;20.80;65.60;;;;;;4996415;28;95355;-79
2021/09/09 05:52:10;;;;;;;1.67;1.05;;;20.80;64.90;;;;;;4980922;28;96254;-77
2021/09/09 05:54:42;;;;;;;1.63;0.70;;;20.80;64.90;;;;;;5014341;28;95964;-77
2021/09/09 05:57:14;;;;;;;1.10;1.00;;;20.80;64.80;;;;;;4991022;28;97451;-77
2021/09/09 05:59:46;;;;;;;1.23;0.88;;;20.80;64.90;;;;;;5012496;28;95962;-77
2021/09/09 06:02:18;;;;;;;3.95;3.55;;;20.80;65.00;;;;;;5014577;28;96599;-78
2021/09/09 06:04:55;;;;;;;1.00;1.00;;;20.80;65.00;;;;;;5025708;28;95690;-78
2021/09/09 06:07:29;;;;;;;2.30;1.00;;;20.80;65.00;;;;;;4993957;28;95736;-82
2021/09/09 06:10:01;;;;;;;0.98;0.98;;;20.80;65.00;;;;;;4991931;28;95822;-79
2021/09/09 06:12:32;;;;;;;1.17;0.90;;;20.80;65.10;;;;;;5018421;28;95799;-75
2021/09/09 06:15:04;;;;;;;1.00;0.90;;;20.80;64.40;;;;;;4991451;28;98158;-77
2021/09/09 06:17:35;;;;;;;2.25;1.05;;;20.90;65.10;;;;;;4983407;28;96103;-78
2021/09/09 06:20:07;;;;;;;2.88;0.95;;;20.90;65.00;;;;;;4997167;28;96165;-76
2021/09/09 06:22:38;;;;;;;1.88;1.00;;;20.90;64.90;;;;;;5032963;28;95868;-78
2021/09/09 06:25:11;;;;;;;1.02;1.00;;;21.00;64.80;;;;;;5032894;28;95676;-75
2021/09/09 06:27:41;;;;;;;1.88;1.00;;;21.00;64.70;;;;;;5039202;28;95745;-81
2021/09/09 06:30:12;;;;;;;2.03;0.80;;;21.10;53.30;;;;;;5032439;27;95174;-79
2021/09/09 06:32:43;;;;;;;2.40;0.80;;;21.10;64.60;;;;;;5014624;28;96722;-80
2021/09/09 06:35:13;;;;;;;2.95;1.40;;;21.10;64.90;;;;;;5037645;28;95923;-78
2021/09/09 06:37:46;;;;;;;1.05;0.95;;;21.20;65.00;;;;;;5041550;28;95076;-81
2021/09/09 06:40:16;;;;;;;1.20;1.00;;;21.30;65.00;;;;;;5037497;28;96023;-78
2021/09/09 06:42:45;;;;;;;2.28;0.82;;;21.40;65.10;;;;;;5040058;28;95890;-80
2021/09/09 06:45:16;;;;;;;2.05;0.88;;;21.40;65.00;;;;;;5036459;27;95258;-79
2021/09/09 06:47:46;;;;;;;0.88;0.88;;;21.50;65.00;;;;;;5038946;27;95798;-78
2021/09/09 06:50:17;;;;;;;0.82;0.82;;;21.60;64.90;;;;;;5040716;28;95654;-79
2021/09/09 06:52:49;;;;;;;1.50;1.00;;;21.60;64.90;;;;;;5014526;28;97046;-79
2021/09/09 06:55:22;;;;;;;4.85;1.38;;;21.70;65.00;;;;;;5037024;28;95954;-78
2021/09/09 06:57:54;;;;;;;3.75;1.15;;;21.70;64.00;;;;;;5034006;28;95300;-76
2021/09/09 07:00:26;;;;;;;2.00;1.08;;;21.60;63.10;;;;;;5012203;27;95882;-79
2021/09/09 07:03:00;;;;;;;3.40;1.65;;;21.50;63.10;;;;;;5033104;28;96477;-79
2021/09/09 07:05:34;;;;;;;4.50;1.08;;;21.50;63.20;;;;;;5010169;28;95899;-79
2021/09/09 07:08:07;;;;;;;3.30;1.17;;;21.40;64.00;;;;;;5034214;28;95418;-77
2021/09/09 07:10:40;;;;;;;3.65;1.33;;;21.40;63.50;;;;;;5034649;28;96079;-77
2021/09/09 07:13:17;;;;;;;2.00;1.05;;;21.30;63.60;;;;;;5034900;28;95396;-77
2021/09/09 07:15:48;;;;;;;4.60;1.70;;;21.30;63.60;;;;;;5025524;28;96248;-77
2021/09/09 07:18:19;;;;;;;1.98;1.20;;;21.30;63.70;;;;;;5005327;27;96262;-78
2021/09/09 07:20:51;;;;;;;5.30;1.67;;;21.30;63.90;;;;;;5010943;28;95926;-81
2021/09/09 07:23:24;;;;;;;2.88;1.63;;;21.30;64.40;;;;;;5020636;28;96426;-81
2021/09/09 07:25:54;;;;;;;1.40;1.10;;;21.40;64.50;;;;;;5038812;28;96502;-79
2021/09/09 07:28:24;;;;;;;3.63;1.10;;;21.50;63.90;;;;;;5035903;28;95217;-78
2021/09/09 07:30:54;;;;;;;1.77;1.30;;;21.60;64.50;;;;;;5029035;28;96037;-78
2021/09/09 07:33:26;;;;;;;1.52;1.08;;;21.70;64.50;;;;;;5036821;28;95573;-79
2021/09/09 07:35:56;;;;;;;;;;;21.70;64.50;;;;;;5016189;28;95438;-79
2021/09/09 07:38:27;;;;;;;4.78;1.20;;;21.60;62.80;;;;;;5019831;28;95406;-80
2021/09/09 07:40:57;;;;;;;2.23;1.30;;;21.60;63.00;;;;;;5040182;28;95679;-78
2021/09/09 07:43:29;;;;;;;1.00;1.00;;;21.50;62.30;;;;;;5023702;28;95540;-79
2021/09/09 07:46:00;;;;;;;1.20;1.10;;;21.40;63.10;;;;;;5023835;28;98007;-79
2021/09/09 07:48:30;;;;;;;7.63;1.20;;;21.40;63.20;;;;;;5048831;28;95914;-78
2021/09/09 07:51:01;;;;;;;1.77;1.20;;;21.40;61.60;;;;;;5028599;28;95313;-79
2021/09/09 07:53:36;;;;;;;1.65;0.80;;;21.20;56.50;;;;;;5047080;28;95261;-78
2021/09/09 07:56:07;;;;;;;2.97;0.85;;;21.10;57.30;;;;;;5025574;28;96295;-78
2021/09/09 07:58:39;;;;;;;1.17;1.08;;;21.00;57.10;;;;;;5035591;28;95200;-79
2021/09/09 08:01:10;;;;;;;2.33;1.02;;;20.90;55.20;;;;;;5031246;27;95347;-80
2021/09/09 08:03:42;;;;;;;3.47;1.05;;;20.80;55.70;;;;;;5034916;28;96699;-79
2021/09/09 08:06:15;;;;;;;2.60;1.00;;;20.70;55.90;;;;;;5036275;28;95928;-79
2021/09/09 08:08:48;;;;;;;1.73;1.55;;;20.70;57.00;;;;;;5024865;28;95228;-79
2021/09/09 08:11:19;;;;;;;2.63;0.90;;;20.60;56.90;;;;;;5038946;28;95651;-78
2021/09/09 08:13:52;;;;;;;4.95;1.63;;;20.50;55.60;;;;;;5038406;28;96343;-79
2021/09/09 08:16:23;;;;;;;6.30;2.60;;;20.50;55.30;;;;;;5008246;28;96110;-78
2021/09/09 08:18:54;;;;;;;;;;;20.50;56.60;;;;;;4993893;28;95476;-78
2021/09/09 08:21:26;;;;;;;3.30;2.25;;;20.50;57.00;;;;;;5002164;28;95760;-78
2021/09/09 08:23:57;;;;;;;2.70;1.45;;;20.50;56.90;;;;;;5018530;28;95729;-78
2021/09/09 08:26:26;;;;;;;2.03;1.30;;;20.40;56.10;;;;;;5018914;28;96026;-79
2021/09/09 08:28:57;;;;;;;1.35;1.10;;;20.40;56.20;;;;;;5016489;28;95776;-78
2021/09/09 08:31:28;;;;;;;4.05;1.88;;;20.40;42.90;;;;;;5015493;28;95861;-79
2021/09/09 08:33:58;;;;;;;2.17;1.98;;;20.30;56.30;;;;;;4991611;28;96547;-79
2021/09/09 08:39:27;;;;;;;1.40;1.30;;;20.20;56.00;;;;;;5002726;28;96608;-79
2021/09/09 08:41:58;;;;;;;2.58;1.30;;;20.20;55.60;;;;;;5000144;28;95261;-80
2021/09/09 08:44:28;;;;;;;5.07;3.90;;;20.20;55.70;;;;;;5018650;28;97225;-79
2021/09/09 08:47:01;;;;;;;4.85;3.42;;;20.10;55.80;;;;;;5014465;28;95833;-78
2021/09/09 08:49:33;;;;;;;3.72;2.30;;;20.20;56.30;;;;;;5018805;28;97764;-79
2021/09/09 08:52:06;;;;;;;4.38;3.38;;;20.20;55.70;;;;;;5020389;28;95412;-78
2021/09/09 08:54:40;;;;;;;4.15;3.10;;;20.20;55.70;;;;;;5002732;28;98174;-80
2021/09/09 08:57:11;;;;;;;2.75;2.50;;;20.10;55.60;;;;;;5020935;28;95978;-80
2021/09/09 08:59:41;;;;;;;;;;;20.10;56.90;;;;;;5019235;28;95925;-79
2021/09/09 09:02:23;;;;;;;3.67;2.10;;;20.20;57.80;;;;;;4996909;28;98329;-80
2021/09/09 09:05:10;;;;;;;2.33;2.10;;;20.30;58.70;;;;;;5019492;28;95862;-79
2021/09/09 09:07:43;;;;;;;5.03;2.28;;;20.30;59.00;;;;;;5004054;28;96583;-80
2021/09/09 09:10:14;;;;;;;2.05;1.85;;;20.40;59.10;;;;;;4997085;28;95498;-80
2021/09/09 09:12:53;;;;;;;2.10;1.90;;;20.40;59.80;;;;;;4981705;28;95882;-80
2021/09/09 09:15:30;;;;;;;1.80;1.70;;;20.40;60.00;;;;;;5013163;28;96580;-81
2021/09/09 09:18:08;;;;;;;2.17;1.98;;;20.40;60.40;;;;;;5026123;27;95286;-79
2021/09/09 09:20:48;;;;;;;2.67;1.52;;;20.40;60.70;;;;;;5028651;28;95660;-80
2021/09/09 09:23:28;;;;;;;1.70;1.55;;;20.40;60.90;;;;;;5015460;28;95656;-79
2021/09/09 09:26:03;;;;;;;1.70;1.60;;;20.40;61.00;;;;;;5033427;28;96004;-79
2021/09/09 09:28:47;;;;;;;2.85;1.55;;;20.40;61.20;;;;;;5030798;27;95772;-78
2021/09/09 09:31:28;;;;;;;4.00;2.00;;;20.40;61.20;;;;;;5032170;28;95766;-79
2021/09/09 09:34:04;;;;;;;2.42;1.65;;;20.40;61.40;;;;;;5013453;28;95740;-79
2021/09/09 09:36:44;;;;;;;1.98;1.55;;;20.40;61.50;;;;;;5033046;28;95811;-80
2021/09/09 09:39:19;;;;;;;;;;;20.40;61.50;;;;;;5017249;28;95801;-80
2021/09/09 09:41:55;;;;;;;1.37;1.27;;;20.40;61.70;;;;;;5037404;28;95800;-80
2021/09/09 09:44:29;;;;;;;2.03;1.35;;;20.40;61.90;;;;;;5034593;28;95742;-79
2021/09/09 09:47:19;;;;;;;2.03;1.83;;;20.40;61.90;;;;;;5035859;28;96682;-79
2021/09/09 09:49:54;;;;;;;1.45;1.35;;;20.40;62.00;;;;;;5039033;28;96109;-80
2021/09/09 09:52:30;;;;;;;2.03;1.35;;;20.30;62.00;;;;;;5014347;28;96415;-80
2021/09/09 09:55:03;;;;;;;2.78;1.60;;;20.30;62.20;;;;;;5036330;28;95230;-79
2021/09/09 09:57:53;;;;;;;1.63;1.30;;;20.30;62.10;;;;;;5016204;28;95844;-78
2021/09/09 10:00:24;;;;;;;2.75;1.40;;;20.40;62.30;;;;;;5026713;28;97287;-78
2021/09/09 10:03:00;;;;;;;3.17;1.63;;;20.30;62.20;;;;;;5031248;28;96913;-79
2021/09/09 10:05:35;;;;;;;3.35;1.83;;;20.30;62.40;;;;;;5010246;28;95687;-79
2021/09/09 10:08:09;;;;;;;1.85;1.58;;;20.30;62.40;;;;;;5036079;28;95928;-78
2021/09/09 10:10:40;;;;;;;3.00;1.50;;;20.30;62.10;;;;;;5034984;28;95357;-78
2021/09/09 10:13:15;;;;;;;1.85;1.60;;;20.30;61.80;;;;;;5034222;28;95616;-79
2021/09/09 10:15:50;;;;;;;1.85;1.70;;;20.20;61.80;;;;;;5010216;28;95808;-78
2021/09/09 10:18:21;;;;;;;3.55;1.90;;;20.20;62.10;;;;;;5015947;28;96444;-78
2021/09/09 10:20:52;;;;;;;3.40;1.30;;;20.20;62.10;;;;;;5028349;28;95468;-78
2021/09/09 10:23:27;;;;;;;2.25;1.50;;;20.20;61.70;;;;;;5034404;28;95841;-78
2021/09/09 10:25:58;;;;;;;3.13;1.55;;;20.10;62.00;;;;;;5032346;28;95297;-77
2021/09/09 10:28:41;;;;;;;4.13;2.05;;;20.20;62.10;;;;;;5031897;28;95989;-79
2021/09/09 10:31:18;;;;;;;2.92;1.55;;;20.10;61.90;;;;;;5033471;28;97001;-78
2021/09/09 10:33:50;;;;;;;4.72;1.67;;;20.10;62.10;;;;;;5035032;28;95865;-78
2021/09/09 10:36:41;;;;;;;6.80;2.00;;;20.00;62.50;;;;;;5010751;28;96245;-78
2021/09/09 10:39:42;;;;;;;5.05;1.95;;;19.90;62.60;;;;;;5037430;28;95937;-78
2021/09/09 10:42:37;;;;;;;3.43;2.00;;;19.90;62.90;;;;;;5036279;28;95723;-78
2021/09/09 10:45:35;;;;;;;2.88;1.73;;;19.80;63.10;;;;;;5035998;28;95332;-78
2021/09/09 10:48:16;;;;;;;5.53;2.30;;;19.70;63.20;;;;;;5036807;28;95382;-79
2021/09/09 10:51:16;;;;;;;5.65;1.73;;;19.70;63.10;;;;;;5014649;28;95891;-78
2021/09/09 10:53:53;;;;;;;;;;;19.70;63.20;;;;;;5037649;28;97298;-79
2021/09/09 10:56:34;;;;;;;6.03;2.30;;;19.70;63.10;;;;;;5022095;28;95903;-78
2021/09/09 10:59:09;;;;;;;8.65;2.65;;;19.60;63.40;;;;;;5036658;28;95975;-77
2021/09/09 11:01:45;;;;;;;7.88;2.42;;;19.60;63.40;;;;;;5028980;28;95910;-78
2021/09/09 11:04:37;;;;;;;6.22;2.22;;;19.60;63.30;;;;;;5016574;28;95825;-78
2021/09/09 11:07:31;;;;;;;5.72;2.47;;;19.60;63.50;;;;;;5037186;28;95107;-78
2021/09/09 11:10:07;;;;;;;6.03;2.28;;;19.60;63.70;;;;;;5016286;28;95657;-77
2021/09/09 11:12:54;;;;;;;4.65;1.80;;;19.50;63.70;;;;;;5036939;28;97043;-77
2021/09/09 11:15:33;;;;;;;5.65;2.28;;;19.50;63.80;;;;;;5013043;28;95934;-78
2021/09/09 11:18:04;;;;;;;8.70;2.33;;;19.50;63.80;;;;;;5012790;28;95433;-78
2021/09/09 11:21:03;;;;;;;5.82;2.15;;;19.50;63.90;;;;;;5014275;28;95683;-78
2021/09/09 11:23:36;;;;;;;6.40;1.85;;;19.50;63.80;;;;;;5017608;28;95903;-78
2021/09/09 11:26:16;;;;;;;41.42;3.10;;;19.40;63.80;;;;;;5015492;28;95459;-76
2021/09/09 11:28:49;;;;;;;10.90;2.42;;;19.40;64.20;;;;;;4990534;28;95714;-77
2021/09/09 11:31:24;;;;;;;9.45;2.47;;;19.40;64.40;;;;;;5014006;28;95982;-78
2021/09/09 11:34:04;;;;;;;11.10;3.58;;;19.40;64.20;;;;;;4992177;28;96366;-77
2021/09/09 11:36:41;;;;;;;8.98;2.40;;;19.40;64.10;;;;;;4999733;28;95635;-77
2021/09/09 11:39:19;;;;;;;9.48;2.47;;;19.30;64.10;;;;;;5017636;28;95725;-77
2021/09/09 11:41:53;;;;;;;11.45;2.85;;;19.30;64.20;;;;;;5017349;28;95415;-77
2021/09/09 11:44:32;;;;;;;6.50;1.92;;;19.30;64.40;;;;;;5018168;28;95947;-77
2021/09/09 11:47:12;;;;;;;6.78;2.42;;;19.30;64.60;;;;;;5017731;28;95361;-78
2021/09/09 11:49:43;;;;;;;7.55;2.15;;;19.30;64.70;;;;;;4998358;28;95660;-77
2021/09/09 11:52:15;;;;;;;6.97;2.33;;;19.20;64.60;;;;;;5023542;28;96261;-76
2021/09/09 11:54:51;;;;;;;8.38;2.85;;;19.20;64.70;;;;;;5011390;28;95293;-75
2021/09/09 11:57:23;;;;;;;8.60;3.15;;;19.20;64.70;;;;;;5026671;28;95268;-77
2021/09/09 11:59:57;;;;;;;7.90;2.75;;;19.20;64.70;;;;;;5026613;28;95176;-77
2021/09/09 12:02:34;;;;;;;5.38;2.25;;;19.20;65.10;;;;;;5042184;28;95132;-77
2021/09/09 12:05:08;;;;;;;9.30;2.25;;;19.20;65.10;;;;;;5045234;28;95629;-77
2021/09/09 12:07:40;;;;;;;12.30;2.30;;;19.10;65.10;;;;;;5040135;28;95237;-77
2021/09/09 12:10:22;;;;;;;7.97;2.42;;;19.10;65.20;;;;;;5043904;28;95497;-75
2021/09/09 12:12:59;;;;;;;10.90;2.55;;;19.10;65.20;;;;;;5041161;28;95259;-76
2021/09/09 12:15:29;;;;;;;9.23;2.50;;;19.10;65.30;;;;;;5035495;28;95337;-75
2021/09/09 12:18:10;;;;;;;7.50;3.15;;;19.00;65.20;;;;;;5032005;27;95683;-77
2021/09/09 12:20:42;;;;;;;9.63;2.45;;;19.00;65.50;;;;;;5037525;28;95210;-77
2021/09/09 12:23:19;;;;;;;11.15;3.45;;;19.00;65.60;;;;;;5040907;28;95202;-77
2021/09/09 12:25:51;;;;;;;9.32;2.47;;;19.00;65.60;;;;;;5018890;28;98695;-77
2021/09/09 12:28:29;;;;;;;11.70;3.35;;;19.00;53.90;;;;;;5040402;28;97120;-77
2021/09/09 12:31:01;;;;;;;10.65;2.55;;;18.90;65.80;;;;;;5035193;28;95507;-70
2021/09/09 12:33:37;;;;;;;8.52;2.80;;;18.90;65.90;;;;;;5041183;28;95306;-76
2021/09/09 12:36:20;;;;;;;10.65;2.92;;;18.90;66.20;;;;;;5040096;28;95930;-76
2021/09/09 12:38:53;;;;;;;12.73;2.72;;;18.90;66.30;;;;;;5014242;28;95935;-77
2021/09/09 12:41:24;;;;;;;9.25;3.35;;;18.90;66.40;;;;;;5039293;28;95780;-77
2021/09/09 12:44:03;;;;;;;9.50;3.17;;;18.90;66.50;;;;;;5016489;28;95925;-77
2021/09/09 12:46:35;;;;;;;10.63;3.17;;;18.90;66.70;;;;;;5032003;28;96408;-69
2021/09/09 12:49:07;;;;;;;9.82;3.20;;;18.80;66.90;;;;;;5017736;28;95846;-76
2021/09/09 12:51:49;;;;;;;12.75;3.15;;;18.80;67.00;;;;;;5022837;28;95937;-70
2021/09/09 12:54:20;;;;;;;10.57;2.92;;;18.80;67.00;;;;;;5019652;28;95760;-77
2021/09/09 12:56:54;;;;;;;9.18;2.35;;;18.80;67.10;;;;;;5040608;28;95323;-76
2021/09/09 12:59:26;;;;;;;8.27;2.22;;;18.80;67.10;;;;;;5035279;28;98371;-77
2021/09/09 13:01:58;;;;;;;7.30;2.83;;;18.80;67.20;;;;;;5033745;28;95664;-77
2021/09/09 13:04:31;;;;;;;5.60;1.90;;;18.80;67.20;;;;;;5042725;27;95670;-77
2021/09/09 13:07:03;;;;;;;9.55;3.05;;;18.80;67.30;;;;;;5020272;28;96466;-78
2021/09/09 13:09:34;;;;;;;11.32;3.25;;;18.70;67.30;;;;;;5021112;28;95581;-77
2021/09/09 13:12:06;;;;;;;9.38;2.35;;;18.70;67.30;;;;;;5020072;28;95266;-77
2021/09/09 13:14:36;;;;;;;10.70;2.50;;;18.70;67.30;;;;;;5021911;28;95207;-77
2021/09/09 13:17:06;;;;;;;10.57;2.72;;;18.70;67.50;;;;;;4977039;28;96090;-78
2021/09/09 13:19:38;;;;;;;10.82;3.40;;;18.70;67.40;;;;;;5008102;28;95867;-78
2021/09/09 13:22:07;;;;;;;;;;;18.70;67.50;;;;;;5021058;28;95345;-77
2021/09/09 13:24:40;;;;;;;7.78;3.00;;;18.60;67.60;;;;;;5020664;28;95682;-77
2021/09/09 13:27:11;;;;;;;7.03;2.15;;;18.60;67.60;;;;;;5018680;28;95919;-77
2021/09/09 13:29:40;;;;;;;9.70;2.67;;;18.60;67.60;;;;;;4996161;28;95317;-77